Time;durP1;ratioP1;P1;durP2;ratioP2;P2;SDS_P1;SDS_P2;PMS_P1;PMS_P2;Temp;Humidity;BMP_temperature;BMP_pressure;BME280_temperature;BME280_humidity;BME280_pressure;Samples;Min_cycle;Max_cycle;Signal;HPM_P1;HPM_P2
2023/06/01 00:02:20;;;;;;;10.80;6.60;;;;;;;10.84;61.96;100514.95;129825;1278;114803;-64
2023/06/01 00:05:23;;;;;;;10.20;6.30;;;;;;;10.81;62.09;100514.38;129651;1278;129114;-65
2023/06/01 00:08:26;;;;;;;14.30;7.20;;;;;;;10.77;62.32;100515.63;129602;1260;114788;-66
2023/06/01 00:11:28;;;;;;;13.60;6.80;;;;;;;10.74;62.44;100512.90;130022;1261;114933;-65
2023/06/01 00:14:30;;;;;;;15.10;8.20;;;;;;;10.71;62.54;100515.73;130016;1260;115414;-65
2023/06/01 00:17:32;;;;;;;19.50;9.80;;;;;;;10.66;62.56;100515.60;129792;1260;114813;-66
2023/06/01 00:20:34;;;;;;;17.00;8.90;;;;;;;10.62;62.78;100510.57;129969;1260;115059;-65
2023/06/01 00:23:40;;;;;;;12.20;7.00;;;;;;;10.60;62.91;100511.95;130031;1256;114791;-66
2023/06/01 00:26:42;;;;;;;15.00;7.30;;;;;;;10.56;63.01;100504.45;129801;1263;127956;-65
2023/06/01 00:29:44;;;;;;;15.70;7.40;;;;;;;10.52;63.16;100503.00;129988;1256;114785;-66
2023/06/01 00:32:47;;;;;;;11.80;7.50;;;;;;;10.49;63.41;100502.62;130112;1269;114853;-66
2023/06/01 00:35:49;;;;;;;23.40;9.30;;;;;;;10.46;63.40;100499.85;129857;1255;114779;-65
2023/06/01 00:38:51;;;;;;;12.20;6.90;;;;;;;10.44;63.55;100502.67;130040;1256;114705;-66
2023/06/01 00:41:53;;;;;;;14.70;7.20;;;;;;;10.41;63.62;100498.00;130023;1256;114738;-65
2023/06/01 00:44:55;;;;;;;11.60;7.40;;;;;;;10.39;63.64;100497.20;130091;1277;115137;-65
2023/06/01 00:47:59;;;;;;;18.20;8.60;;;;;;;10.37;63.82;100498.67;129972;1258;128874;-65
2023/06/01 00:51:01;;;;;;;15.10;8.90;;;;;;;10.33;64.11;100498.46;130120;1274;115226;-67
2023/06/01 00:54:03;;;;;;;19.10;11.60;;;;;;;10.31;64.07;100500.36;130101;1258;114745;-64
2023/06/01 00:57:07;;;;;;;17.10;8.50;;;;;;;10.30;64.20;100498.45;129844;1268;115100;-65
2023/06/01 01:00:10;;;;;;;16.90;9.00;;;;;;;10.27;64.29;100498.58;129903;1258;114798;-65
2023/06/01 01:03:13;;;;;;;14.00;8.00;;;;;;;10.26;64.34;100500.98;129659;1259;114679;-65
2023/06/01 01:06:28;;;;;;;15.20;8.60;;;;;;;10.23;64.42;100498.23;129582;1277;128434;-64
2023/06/01 01:09:48;;;;;;;15.10;7.90;;;;;;;10.21;64.72;100498.50;129737;1259;114868;-64
2023/06/01 01:12:59;;;;;;;12.70;7.50;;;;;;;10.18;64.68;100500.55;129941;1258;114892;-63
2023/06/01 01:16:27;;;;;;;14.20;6.50;;;;;;;10.15;64.80;100499.30;129764;1258;115095;-63
2023/06/01 01:19:43;;;;;;;9.80;6.70;;;;;;;10.12;64.98;100498.86;129529;1264;114877;-63
2023/06/01 01:23:04;;;;;;;12.20;6.90;;;;;;;10.09;65.05;100495.80;129747;1258;128840;-63
2023/06/01 01:26:19;;;;;;;13.90;7.60;;;;;;;10.07;65.38;100496.06;129508;1259;114786;-63
2023/06/01 01:29:24;;;;;;;11.50;7.00;;;;;;;10.05;65.47;100491.16;129593;1262;114812;-63
2023/06/01 01:32:26;;;;;;;14.60;7.50;;;;;;;10.02;65.76;100490.00;129790;1269;114651;-63
2023/06/01 01:35:28;;;;;;;16.60;7.60;;;;;;;10.00;65.65;100488.53;129638;1277;114919;-63
2023/06/01 01:38:35;;;;;;;14.20;7.10;;;;;;;9.97;65.66;100486.33;129759;1259;114773;-63
2023/06/01 01:41:37;;;;;;;14.90;7.20;;;;;;;9.94;65.60;100485.75;129717;1274;115201;-63
2023/06/01 01:44:40;;;;;;;13.10;7.70;;;;;;;9.92;65.97;100480.14;129955;1258;114794;-63
2023/06/01 01:48:10;;;;;;;14.40;7.80;;;;;;;9.89;66.07;100477.39;130029;1260;114821;-64
2023/06/01 01:51:46;;;;;;;23.60;10.50;;;;;;;9.86;66.23;100476.62;129912;1258;115084;-64
2023/06/01 01:54:50;;;;;;;15.30;9.50;;;;;;;9.84;66.47;100473.71;129636;1260;128834;-65
2023/06/01 01:57:54;;;;;;;16.80;9.30;;;;;;;9.81;66.27;100471.73;129658;1262;116476;-64
2023/06/01 02:00:57;;;;;;;18.00;9.00;;;;;;;9.78;66.43;100474.13;129698;1271;115138;-63
2023/06/01 02:04:07;;;;;;;17.40;8.00;;;;;;;9.76;66.61;100471.05;129609;1264;114841;-64
2023/06/01 02:07:10;;;;;;;19.30;8.30;;;;;;;9.73;66.61;100463.31;129949;1261;114774;-65
2023/06/01 02:10:14;;;;;;;14.40;8.10;;;;;;;9.70;66.70;100461.09;129957;1260;128634;-65
2023/06/01 02:13:16;;;;;;;15.20;9.00;;;;;;;9.68;66.82;100463.85;129722;1278;114826;-65
2023/06/01 02:16:19;;;;;;;15.80;8.90;;;;;;;9.65;66.77;100460.23;129785;1260;116406;-62
2023/06/01 02:19:21;;;;;;;20.80;8.00;;;;;;;9.63;66.97;100462.10;129574;1263;114871;-63
2023/06/01 02:22:23;;;;;;;17.10;9.60;;;;;;;9.62;66.92;100460.05;128109;1259;2740868;-63
2023/06/01 02:25:26;;;;;;;15.20;8.90;;;;;;;9.60;67.07;100457.65;129934;1277;114742;-62
2023/06/01 02:28:31;;;;;;;18.00;10.00;;;;;;;9.58;67.34;100456.64;129751;1258;114725;-62
2023/06/01 02:31:34;;;;;;;24.20;11.40;;;;;;;9.56;67.38;100453.52;129771;1271;114738;-63
2023/06/01 02:34:37;;;;;;;14.00;9.00;;;;;;;9.54;67.41;100454.99;129764;1277;114711;-63
2023/06/01 02:37:38;;;;;;;17.80;10.40;;;;;;;9.54;67.69;100456.42;129747;1277;114805;-63
2023/06/01 02:40:40;;;;;;;14.20;9.90;;;;;;;9.53;67.84;100454.00;129757;1277;114849;-63
2023/06/01 02:43:43;;;;;;;17.80;11.40;;;;;;;9.52;68.02;100453.48;129719;1256;115896;-63
2023/06/01 02:46:45;;;;;;;19.60;10.40;;;;;;;9.52;67.65;100449.20;129757;1254;114718;-63
2023/06/01 02:49:48;;;;;;;18.90;10.00;;;;;;;9.53;67.95;100450.96;129759;1258;115211;-62
2023/06/01 02:52:51;;;;;;;16.20;9.90;;;;;;;9.53;67.89;100445.41;129751;1258;114792;-62
2023/06/01 02:55:54;;;;;;;21.10;9.40;;;;;;;9.55;67.77;100443.56;129782;1258;114787;-63
2023/06/01 02:58:56;;;;;;;13.40;8.80;;;;;;;9.56;68.07;100441.38;129545;1262;115336;-63
2023/06/01 03:01:59;;;;;;;16.70;9.20;;;;;;;9.58;68.14;100441.48;129699;1272;114847;-63
2023/06/01 03:05:06;;;;;;;16.40;9.40;;;;;;;9.60;68.08;100441.56;129930;1277;114818;-63
2023/06/01 03:08:08;;;;;;;15.70;8.90;;;;;;;9.63;68.44;100443.77;129778;1277;115425;-63
2023/06/01 03:11:10;;;;;;;17.80;10.00;;;;;;;9.66;68.29;100441.14;129847;1259;114975;-63
2023/06/01 03:14:12;;;;;;;17.50;10.00;;;;;;;9.70;68.44;100440.05;129858;1268;114776;-63
2023/06/01 03:17:14;;;;;;;25.20;9.50;;;;;;;9.74;68.59;100441.50;129578;1278;116479;-63
2023/06/01 03:20:16;;;;;;;14.60;8.70;;;;;;;9.80;68.74;100443.40;129794;1274;114774;-62
2023/06/01 03:23:18;;;;;;;14.80;8.50;;;;;;;9.84;68.90;100441.04;129716;1260;114877;-63
2023/06/01 03:26:21;;;;;;;13.20;8.90;;;;;;;9.91;68.81;100442.02;129812;1259;114762;-63
2023/06/01 03:29:23;;;;;;;13.30;8.50;;;;;;;9.98;68.73;100446.16;129763;1258;114718;-63
2023/06/01 03:32:25;;;;;;;13.70;8.90;;;;;;;10.05;68.95;100444.05;129762;1277;114816;-63
2023/06/01 03:35:28;;;;;;;17.10;8.80;;;;;;;10.15;69.12;100447.53;129683;1259;114739;-63
2023/06/01 03:38:30;;;;;;;14.20;8.30;;;;;;;10.25;69.00;100442.82;129857;1258;115181;-63
2023/06/01 03:41:32;;;;;;;14.70;8.40;;;;;;;10.36;69.15;100443.73;129653;1256;114797;-63
2023/06/01 03:44:35;;;;;;;14.20;8.90;;;;;;;10.49;69.24;100443.00;129812;1267;115202;-62
2023/06/01 03:47:38;;;;;;;18.90;8.40;;;;;;;10.63;69.17;100442.83;129764;1270;114725;-62
2023/06/01 03:50:41;;;;;;;21.10;9.10;;;;;;;10.78;69.37;100443.41;129745;1277;115423;-63
2023/06/01 03:53:43;;;;;;;12.50;9.60;;;;;;;10.93;69.42;100439.48;129803;1261;130169;-63
2023/06/01 03:56:47;;;;;;;19.30;9.00;;;;;;;11.08;69.56;100433.74;129745;1262;114835;-62
2023/06/01 03:59:51;;;;;;;17.20;10.20;;;;;;;11.23;69.20;100432.80;129769;1278;115176;-62
2023/06/01 04:03:09;;;;;;;20.20;8.90;;;;;;;11.39;69.24;100432.20;129598;1261;114867;-63
2023/06/01 04:06:13;;;;;;;18.30;9.00;;;;;;;11.56;69.21;100429.88;129774;1278;114784;-63
2023/06/01 04:09:16;;;;;;;18.20;9.60;;;;;;;11.74;69.05;100426.27;129729;1269;128844;-63
2023/06/01 04:12:19;;;;;;;20.00;10.40;;;;;;;11.91;69.21;100424.99;129739;1260;114700;-64
2023/06/01 04:15:22;;;;;;;18.50;9.80;;;;;;;12.10;68.65;100428.70;130100;1260;114707;-64
2023/06/01 04:18:24;;;;;;;18.70;10.70;;;;;;;12.29;69.15;100423.76;129968;1269;114711;-64
2023/06/01 04:21:26;;;;;;;15.80;10.00;;;;;;;12.48;69.21;100417.16;130242;1260;114729;-63
2023/06/01 04:24:28;;;;;;;29.30;11.00;;;;;;;12.68;68.86;100417.65;129535;1265;116511;-63
2023/06/01 04:27:31;;;;;;;21.20;10.50;;;;;;;12.89;68.83;100406.95;129823;1259;115051;-64
2023/06/01 04:30:33;;;;;;;21.10;10.20;;;;;;;13.11;68.67;100406.02;130022;1266;114699;-64
2023/06/01 04:33:36;;;;;;;19.80;11.70;;;;;;;13.34;68.19;100402.59;129975;1261;114828;-64
2023/06/01 04:36:42;;;;;;;21.50;10.80;;;;;;;13.60;68.32;100401.58;129705;1259;114999;-63
2023/06/01 04:39:48;;;;;;;37.00;11.70;;;;;;;13.97;68.21;100396.61;129933;1260;115083;-64
2023/06/01 04:42:55;;;;;;;22.50;9.70;;;;;;;14.52;67.96;100389.39;129736;1261;114878;-63
2023/06/01 04:46:03;;;;;;;17.10;10.40;;;;;;;15.15;67.65;100388.20;129792;1259;128999;-63
2023/06/01 04:49:05;;;;;;;21.60;10.40;;;;;;;15.88;66.79;100386.64;129603;1266;116412;-64
2023/06/01 04:52:09;;;;;;;22.30;9.70;;;;;;;16.63;66.06;100387.20;129848;1268;114849;-64
2023/06/01 04:55:15;;;;;;;23.50;9.10;;;;;;;17.33;64.88;100387.62;130023;1260;114725;-64
2023/06/01 04:58:17;;;;;;;16.30;8.90;;;;;;;17.93;63.60;100380.81;129568;1272;114864;-63
2023/06/01 05:01:29;;;;;;;16.60;8.90;;;;;;;18.43;62.64;100370.42;129947;1278;114748;-64
2023/06/01 05:04:31;;;;;;;22.80;9.50;;;;;;;18.88;61.70;100374.98;129916;1278;115168;-64
2023/06/01 05:07:34;;;;;;;26.50;8.30;;;;;;;19.43;61.03;100373.15;129794;1260;114748;-63
2023/06/01 05:10:37;;;;;;;13.20;7.40;;;;;;;20.11;60.21;100366.93;129850;1269;114690;-64
2023/06/01 05:13:41;;;;;;;21.90;8.60;;;;;;;20.79;59.14;100368.08;129945;1278;114775;-64
2023/06/01 05:16:43;;;;;;;17.60;7.80;;;;;;;21.37;58.06;100369.52;129715;1269;114727;-64
2023/06/01 05:19:45;;;;;;;17.90;8.90;;;;;;;22.01;56.72;100363.39;129736;1261;114785;-64
2023/06/01 05:22:47;;;;;;;17.80;8.30;;;;;;;22.78;55.71;100358.71;130146;1262;115392;-63
2023/06/01 05:25:50;;;;;;;15.30;8.80;;;;;;;23.55;54.60;100354.73;129748;1260;114798;-63
2023/06/01 05:28:52;;;;;;;17.90;8.00;;;;;;;24.41;53.04;100353.57;129926;1260;114780;-63
2023/06/01 05:31:54;;;;;;;12.90;7.30;;;;;;;25.34;51.87;100353.91;129851;1269;115069;-63
2023/06/01 05:34:57;;;;;;;18.30;7.40;;;;;;;26.08;50.09;100348.08;129905;1278;115153;-63
2023/06/01 05:37:59;;;;;;;16.90;7.40;;;;;;;26.65;49.02;100345.54;129715;1269;119825;-63
2023/06/01 05:41:02;;;;;;;14.30;7.90;;;;;;;27.05;47.62;100342.14;129907;1258;115153;-63
2023/06/01 05:44:04;;;;;;;16.00;7.40;;;;;;;27.46;46.56;100344.75;129842;1262;115162;-64
2023/06/01 05:47:07;;;;;;;16.30;7.00;;;;;;;27.95;45.60;100343.92;129904;1260;116295;-64
2023/06/01 05:50:10;;;;;;;14.80;7.50;;;;;;;28.48;44.73;100344.80;129550;1277;114991;-65
2023/06/01 05:53:12;;;;;;;10.70;5.90;;;;;;;28.94;43.46;100343.83;129842;1260;114729;-65
2023/06/01 05:56:16;;;;;;;10.10;6.00;;;;;;;29.43;42.35;100340.61;129666;1260;114816;-65
2023/06/01 05:59:18;;;;;;;10.60;6.10;;;;;;;29.93;41.58;100337.59;129824;1274;114925;-65
2023/06/01 06:02:21;;;;;;;12.70;6.50;;;;;;;30.39;40.69;100332.10;129801;1260;114785;-64
2023/06/01 06:05:23;;;;;;;11.90;5.60;;;;;;;30.80;39.85;100332.16;129699;1261;115231;-65
2023/06/01 06:08:25;;;;;;;11.10;5.40;;;;;;;31.21;38.90;100333.62;129582;1264;114918;-64
2023/06/01 06:11:28;;;;;;;12.60;6.00;;;;;;;31.55;37.95;100329.52;130216;1278;115343;-64
2023/06/01 06:14:30;;;;;;;13.30;5.80;;;;;;;31.89;37.01;100326.90;130120;1258;114740;-66
2023/06/01 06:17:32;;;;;;;7.60;5.10;;;;;;;32.20;36.37;100326.13;130099;1269;114795;-66
2023/06/01 06:20:34;;;;;;;7.10;4.70;;;;;;;32.45;35.38;100326.23;129487;1263;114796;-65
2023/06/01 06:23:39;;;;;;;14.20;5.00;;;;;;;32.49;34.65;100324.03;129993;1270;114860;-66
2023/06/01 06:26:41;;;;;;;8.50;4.00;;;;;;;32.45;33.91;100323.75;129688;1277;114779;-66
2023/06/01 06:29:43;;;;;;;7.30;4.10;;;;;;;32.43;33.26;100323.73;130209;1277;115237;-65
2023/06/01 06:32:45;;;;;;;10.10;4.60;;;;;;;32.35;32.58;100323.33;130258;1254;114715;-65
2023/06/01 06:35:47;;;;;;;7.90;4.10;;;;;;;32.26;32.47;100322.77;129713;1259;120247;-66
2023/06/01 06:38:49;;;;;;;7.10;3.80;;;;;;;32.19;31.96;100319.36;129859;1274;115248;-64
2023/06/01 06:41:51;;;;;;;9.50;3.90;;;;;;;32.20;31.80;100317.52;129838;1277;114709;-66
2023/06/01 06:44:54;;;;;;;7.40;4.30;;;;;;;32.21;31.53;100319.52;129660;1277;114704;-66
2023/06/01 06:47:56;;;;;;;6.30;3.60;;;;;;;32.35;31.19;100322.47;129910;1277;115162;-66
2023/06/01 06:50:58;;;;;;;8.00;4.00;;;;;;;32.46;30.75;100319.61;130050;1274;114739;-65
2023/06/01 06:54:02;;;;;;;8.70;4.50;;;;;;;32.59;30.69;100322.63;130027;1257;114806;-66
2023/06/01 06:57:04;;;;;;;8.50;3.90;;;;;;;32.78;30.65;100316.61;130365;1259;120416;-67
2023/06/01 07:00:08;;;;;;;10.40;3.50;;;;;;;33.02;30.05;100310.85;129899;1261;115368;-66
2023/06/01 07:03:11;;;;;;;7.00;3.70;;;;;;;33.26;29.71;100307.37;130054;1273;114868;-67
2023/06/01 07:06:13;;;;;;;8.90;3.60;;;;;;;33.47;29.42;100307.24;130030;1274;114747;-64
2023/06/01 07:09:15;;;;;;;7.10;3.10;;;;;;;33.58;28.87;100311.89;129999;1254;114820;-64
2023/06/01 07:12:17;;;;;;;8.70;3.80;;;;;;;33.69;28.43;100307.00;129676;1268;114866;-64
2023/06/01 07:15:19;;;;;;;10.20;3.80;;;;;;;33.81;28.33;100303.36;129760;1277;114688;-65
2023/06/01 07:18:22;;;;;;;5.70;3.10;;;;;;;34.09;28.34;100296.67;130282;1268;114725;-65
2023/06/01 07:21:24;;;;;;;6.20;3.20;;;;;;;34.39;27.62;100293.20;130266;1278;114997;-65
2023/06/01 07:24:26;;;;;;;10.20;3.40;;;;;;;34.70;27.54;100288.23;130149;1260;114659;-65
2023/06/01 07:27:28;;;;;;;7.20;3.50;;;;;;;34.91;27.12;100289.90;130198;1278;114813;-61
2023/06/01 07:30:30;;;;;;;3.20;2.90;;;;;;;35.02;26.35;100290.77;129516;1264;114741;-60
2023/06/01 07:33:33;;;;;;;5.90;3.50;;;;;;;35.08;26.03;100293.13;129900;1278;114707;-61
2023/06/01 07:36:36;;;;;;;4.20;3.30;;;;;;;35.12;26.09;100298.36;129825;1261;114767;-61
2023/06/01 07:39:38;;;;;;;4.80;3.40;;;;;;;35.20;25.80;100298.05;129846;1278;114747;-61
2023/06/01 07:42:40;;;;;;;8.00;3.60;;;;;;;35.29;25.52;100291.92;129796;1261;115479;-61
2023/06/01 07:45:43;;;;;;;5.40;3.80;;;;;;;35.21;25.25;100292.00;129460;1274;114827;-60
2023/06/01 07:48:45;;;;;;;5.50;3.50;;;;;;;35.25;25.04;100289.54;129739;1261;114871;-60
2023/06/01 07:51:48;;;;;;;5.90;4.00;;;;;;;35.28;24.65;100288.12;129776;1270;114758;-61
2023/06/01 07:54:51;;;;;;;6.90;4.40;;;;;;;35.36;24.50;100287.08;129984;1277;114806;-60
2023/06/01 07:57:54;;;;;;;7.20;5.10;;;;;;;35.46;24.28;100282.21;129568;1261;120020;-60
2023/06/01 08:00:56;;;;;;;5.90;4.40;;;;;;;35.40;23.40;100283.16;129790;1254;115217;-61
2023/06/01 08:03:59;;;;;;;5.50;3.80;;;;;;;35.33;23.25;100281.70;129796;1258;114800;-60
2023/06/01 08:07:06;;;;;;;;;;;;;;;35.31;23.30;100281.29;129545;1256;114755;-60
2023/06/01 08:10:09;;;;;;;4.00;3.20;;;;;;;35.33;22.93;100277.30;129775;1270;115304;-61
2023/06/01 08:13:11;;;;;;;5.60;2.90;;;;;;;35.22;22.75;100279.58;129869;1277;114744;-60
2023/06/01 08:16:13;;;;;;;6.90;2.90;;;;;;;35.17;22.93;100276.83;129907;1254;115024;-61
2023/06/01 08:19:16;;;;;;;5.00;2.50;;;;;;;35.22;22.86;100276.39;129905;1261;114741;-61
2023/06/01 08:22:20;;;;;;;4.20;2.60;;;;;;;35.28;22.77;100273.13;129804;1277;114696;-61
2023/06/01 08:25:23;;;;;;;4.70;2.60;;;;;;;35.35;22.97;100269.96;129833;1254;114742;-61
2023/06/01 08:28:25;;;;;;;5.90;2.80;;;;;;;35.42;22.83;100265.63;129894;1254;115170;-61
2023/06/01 08:31:27;;;;;;;4.50;2.40;;;;;;;35.46;22.64;100265.76;129767;1277;114792;-61
2023/06/01 08:34:30;;;;;;;5.40;2.40;;;;;;;35.55;22.59;100264.42;129887;1277;115075;-61
2023/06/01 08:37:32;;;;;;;4.50;2.30;;;;;;;35.56;22.35;100263.05;129623;1260;119829;-61
2023/06/01 08:40:35;;;;;;;3.20;2.40;;;;;;;35.47;22.18;100257.11;129846;1254;115417;-61
2023/06/01 08:43:41;;;;;;;4.00;2.40;;;;;;;35.42;22.37;100258.30;129972;1258;114786;-61
2023/06/01 08:46:43;;;;;;;5.20;2.30;;;;;;;35.30;22.21;100254.23;129851;1277;114809;-61
2023/06/01 08:49:46;;;;;;;6.00;2.20;;;;;;;35.21;22.41;100243.76;129937;1277;114736;-60
2023/06/01 08:52:49;;;;;;;8.90;2.10;;;;;;;35.17;22.06;100238.83;129934;1277;114694;-60
2023/06/01 08:55:53;;;;;;;2.50;2.30;;;;;;;35.16;21.96;100233.91;129689;1277;114713;-60
2023/06/01 08:58:55;;;;;;;5.40;2.10;;;;;;;35.03;21.67;100231.09;129922;1260;114710;-60
2023/06/01 09:01:58;;;;;;;2.10;1.80;;;;;;;34.78;21.56;100228.39;129880;1259;114652;-60
2023/06/01 09:05:00;;;;;;;6.20;2.60;;;;;;;34.52;21.47;100221.86;129915;1278;114687;-60
2023/06/01 09:08:03;;;;;;;2.80;2.30;;;;;;;34.31;21.77;100217.95;129643;1261;114758;-60
2023/06/01 09:11:06;;;;;;;5.40;2.20;;;;;;;34.14;21.57;100228.20;129826;1277;114733;-61
2023/06/01 09:14:22;;;;;;;4.10;2.00;;;;;;;33.85;21.72;100224.39;129826;1260;115153;-61
2023/06/01 09:17:24;;;;;;;4.70;1.90;;;;;;;33.63;21.80;100220.80;129772;1264;114798;-60
2023/06/01 09:20:28;;;;;;;3.90;2.40;;;;;;;33.50;21.95;100215.90;130060;1277;114711;-61
2023/06/01 09:23:30;;;;;;;7.50;2.20;;;;;;;33.39;22.11;100213.36;130017;1260;115139;-60
2023/06/01 09:26:32;;;;;;;3.40;2.40;;;;;;;33.32;22.13;100219.45;130051;1258;114757;-60
2023/06/01 09:29:34;;;;;;;3.70;2.10;;;;;;;33.15;22.29;100212.39;130119;1254;114704;-57
2023/06/01 09:32:37;;;;;;;6.00;2.20;;;;;;;32.96;22.36;100210.25;129869;1277;115917;-60
2023/06/01 09:35:49;;;;;;;3.00;2.00;;;;;;;32.69;22.09;100209.67;129949;1260;114732;-60
2023/06/01 09:39:03;;;;;;;2.80;1.90;;;;;;;32.46;22.33;100210.52;129498;1266;114778;-63
2023/06/01 09:42:09;;;;;;;3.80;1.70;;;;;;;32.24;22.58;100206.40;129750;1277;114815;-62
2023/06/01 09:45:23;;;;;;;3.90;2.50;;;;;;;32.08;22.80;100200.73;129741;1258;119448;-60
2023/06/01 09:48:28;;;;;;;6.60;2.30;;;;;;;31.93;23.15;100197.23;129885;1259;115163;-60
2023/06/01 09:51:31;;;;;;;2.80;1.80;;;;;;;31.61;23.03;100195.73;129940;1277;114718;-61
2023/06/01 09:54:36;;;;;;;3.70;2.10;;;;;;;31.27;23.16;100193.09;129993;1255;114805;-63
2023/06/01 09:57:39;;;;;;;4.30;2.20;;;;;;;30.87;23.51;100188.35;129554;1270;114738;-61
2023/06/01 10:00:42;;;;;;;8.20;2.40;;;;;;;30.46;23.59;100183.62;129794;1258;114787;-62
2023/06/01 10:03:44;;;;;;;2.20;1.70;;;;;;;30.13;24.13;100183.77;129643;1260;115500;-62
2023/06/01 10:06:47;;;;;;;3.90;2.40;;;;;;;29.90;24.48;100181.61;129894;1255;114802;-65
2023/06/01 10:09:58;;;;;;;2.90;1.80;;;;;;;29.69;24.65;100179.02;129825;1258;114763;-61
2023/06/01 10:13:00;;;;;;;4.60;2.00;;;;;;;29.52;24.80;100182.94;129917;1277;115362;-59
2023/06/01 10:16:03;;;;;;;2.90;1.90;;;;;;;29.38;25.06;100177.08;129816;1277;114799;-60
2023/06/01 10:19:05;;;;;;;5.00;2.10;;;;;;;29.35;25.65;100175.14;129885;1270;114707;-59
2023/06/01 10:22:10;;;;;;;3.10;2.20;;;;;;;29.33;25.87;100174.02;129818;1261;114805;-63
2023/06/01 10:25:15;;;;;;;3.10;2.10;;;;;;;29.27;25.77;100169.52;129889;1257;115214;-64
2023/06/01 10:28:18;;;;;;;3.60;2.10;;;;;;;29.13;25.82;100170.73;129858;1277;114707;-61
2023/06/01 10:31:40;;;;;;;2.00;1.80;;;;;;;29.04;25.77;100169.48;129782;1273;114725;-61
2023/06/01 10:34:47;;;;;;;5.90;1.90;;;;;;;28.93;25.92;100160.63;129487;1267;115049;-65
2023/06/01 10:38:09;;;;;;;3.50;1.90;;;;;;;28.91;26.24;100159.64;130554;1261;120114;-65
2023/06/01 10:41:30;;;;;;;5.90;2.00;;;;;;;28.82;26.38;100158.04;129800;1259;114770;-61
2023/06/01 10:44:41;;;;;;;5.40;1.80;;;;;;;28.70;26.31;100156.42;129479;1260;114904;-59
2023/06/01 10:47:45;;;;;;;6.90;2.40;;;;;;;28.65;26.48;100157.95;129609;1278;114980;-62
2023/06/01 10:51:17;;;;;;;7.00;2.50;;;;;;;28.62;27.03;100162.63;129831;1260;115230;-61
2023/06/01 10:54:29;;;;;;;2.70;2.00;;;;;;;28.57;27.02;100157.79;129754;1277;120177;-61
2023/06/01 10:57:36;;;;;;;5.70;1.70;;;;;;;28.49;27.41;100154.55;129801;1277;114736;-63
2023/06/01 11:00:39;;;;;;;6.40;2.00;;;;;;;28.40;27.30;100145.82;129769;1273;114719;-60
2023/06/01 11:03:44;;;;;;;8.10;1.90;;;;;;;28.31;27.38;100141.16;129550;1264;115151;-66
2023/06/01 11:06:46;;;;;;;3.90;1.90;;;;;;;28.22;27.29;100141.54;129872;1260;114788;-64
2023/06/01 11:09:49;;;;;;;3.60;2.00;;;;;;;28.16;27.40;100142.78;129886;1256;114790;-69
2023/06/01 11:13:10;;;;;;;5.10;2.10;;;;;;;28.06;27.17;100142.40;130000;1258;114777;-64
2023/06/01 11:16:14;;;;;;;5.80;2.10;;;;;;;27.90;27.30;100136.77;130057;1261;114777;-60
2023/06/01 11:19:24;;;;;;;6.20;2.10;;;;;;;27.88;27.88;100137.19;129831;1263;115138;-64
2023/06/01 11:22:35;;;;;;;6.80;2.10;;;;;;;27.91;27.92;100130.79;129857;1260;115073;-63
2023/06/01 11:25:37;;;;;;;2.80;2.20;;;;;;;27.92;27.93;100130.88;129849;1277;128808;-62
2023/06/01 11:28:40;;;;;;;3.60;2.00;;;;;;;27.84;27.43;100127.04;129647;1277;115137;-64
2023/06/01 11:31:47;;;;;;;5.30;2.70;;;;;;;27.75;27.65;100126.04;129976;1255;114762;-70
2023/06/01 11:34:51;;;;;;;3.00;1.80;;;;;;;27.72;27.86;100123.83;129614;1277;114715;-65
2023/06/01 11:37:56;;;;;;;2.50;2.20;;;;;;;27.68;27.89;100122.35;130386;1277;115616;-66
2023/06/01 11:41:00;;;;;;;4.00;2.20;;;;;;;27.67;28.22;100114.39;130347;1256;120317;-64
2023/06/01 11:44:02;;;;;;;4.50;2.40;;;;;;;27.67;28.38;100107.14;130186;1260;114781;-61
2023/06/01 11:47:06;;;;;;;2.50;2.10;;;;;;;27.70;28.56;100100.16;129970;1278;114715;-61
2023/06/01 11:50:21;;;;;;;6.60;2.60;;;;;;;27.73;28.58;100103.65;129921;1259;114816;-62
2023/06/01 11:53:24;;;;;;;7.70;2.70;;;;;;;27.72;28.47;100100.84;129718;1278;114778;-62
2023/06/01 11:56:34;;;;;;;4.60;2.40;;;;;;;27.68;28.22;100100.42;129972;1278;114807;-62
2023/06/01 11:59:38;;;;;;;3.70;2.40;;;;;;;27.64;28.15;100093.85;129564;1278;115206;-62
2023/06/01 12:02:42;;;;;;;4.90;2.20;;;;;;;27.63;28.68;100091.42;129990;1261;114747;-62
2023/06/01 12:05:50;;;;;;;4.30;2.20;;;;;;;27.60;28.50;100082.96;129880;1276;114860;-62
2023/06/01 12:08:54;;;;;;;6.90;2.60;;;;;;;27.52;28.68;100088.20;129953;1258;114801;-63
2023/06/01 12:11:57;;;;;;;4.20;2.50;;;;;;;27.47;28.92;100086.23;129987;1277;120007;-62
2023/06/01 12:15:00;;;;;;;5.00;2.50;;;;;;;27.46;29.17;100077.95;130171;1254;114786;-62
2023/06/01 12:18:02;;;;;;;4.30;2.60;;;;;;;27.45;29.10;100072.07;130207;1274;114725;-62
2023/06/01 12:21:12;;;;;;;6.70;2.60;;;;;;;27.41;29.29;100072.08;130315;1258;115180;-63
2023/06/01 12:24:14;;;;;;;7.00;2.70;;;;;;;27.38;29.94;100070.73;130234;1255;114773;-64
2023/06/01 12:27:20;;;;;;;3.80;2.70;;;;;;;27.40;30.04;100070.02;129947;1260;114731;-62
2023/06/01 12:30:23;;;;;;;4.50;2.60;;;;;;;27.38;29.90;100065.09;129682;1264;120163;-62
2023/06/01 12:33:35;;;;;;;3.90;2.50;;;;;;;27.34;30.10;100063.78;129880;1257;115137;-62
2023/06/01 12:36:38;;;;;;;7.90;2.90;;;;;;;27.28;30.11;100057.53;130085;1277;114712;-62
2023/06/01 12:39:42;;;;;;;4.60;2.70;;;;;;;27.27;30.61;100051.98;130018;1258;114979;-63
2023/06/01 12:42:45;;;;;;;5.90;2.40;;;;;;;27.29;30.67;100045.32;129910;1259;114783;-67
2023/06/01 12:45:47;;;;;;;3.40;2.30;;;;;;;27.30;30.94;100042.20;130137;1271;115476;-67
2023/06/01 12:48:54;;;;;;;4.60;2.40;;;;;;;27.31;31.05;100040.46;129911;1277;114800;-62
2023/06/01 12:51:57;;;;;;;5.00;2.40;;;;;;;27.32;31.10;100036.49;129901;1258;115297;-68
2023/06/01 12:54:59;;;;;;;5.80;2.80;;;;;;;27.33;30.74;100031.48;130211;1255;114741;-64
2023/06/01 12:58:03;;;;;;;3.70;2.70;;;;;;;27.33;30.87;100032.02;130071;1258;114765;-64
2023/06/01 13:01:06;;;;;;;5.90;2.40;;;;;;;27.31;30.93;100034.63;129739;1277;114796;-67
2023/06/01 13:04:08;;;;;;;6.50;2.80;;;;;;;27.27;30.67;100034.24;130090;1277;114764;-62
2023/06/01 13:07:11;;;;;;;3.90;2.50;;;;;;;27.22;30.51;100026.64;129947;1277;114738;-64
2023/06/01 13:10:14;;;;;;;6.00;2.90;;;;;;;27.16;30.53;100025.39;129888;1259;114902;-67
2023/06/01 13:13:17;;;;;;;3.20;2.60;;;;;;;27.13;30.67;100024.77;130135;1258;114793;-67
2023/06/01 13:16:20;;;;;;;8.70;2.70;;;;;;;27.11;30.82;100020.98;130314;1258;114654;-69
2023/06/01 13:19:25;;;;;;;6.10;2.50;;;;;;;27.08;30.76;100016.33;130262;1258;114726;-63
2023/06/01 13:22:27;;;;;;;;;;;;;;;27.07;30.69;100013.17;129720;1258;119231;-62
2023/06/01 13:25:29;;;;;;;4.80;3.20;;;;;;;27.05;30.91;100011.66;130057;1261;114769;-63
2023/06/01 13:28:32;;;;;;;5.20;3.30;;;;;;;27.03;31.14;100009.48;130396;1278;114793;-62
2023/06/01 13:31:35;;;;;;;6.90;3.30;;;;;;;27.01;30.83;100009.21;129885;1260;114739;-62
2023/06/01 13:34:37;;;;;;;3.60;2.20;;;;;;;26.98;30.66;100002.87;130069;1257;115177;-62
2023/06/01 13:37:39;;;;;;;4.70;2.80;;;;;;;26.94;30.90;99998.97;129754;1261;114742;-62
2023/06/01 13:40:42;;;;;;;5.50;2.50;;;;;;;26.90;30.82;100001.33;129782;1255;114740;-62
2023/06/01 13:43:45;;;;;;;7.20;3.20;;;;;;;26.87;30.93;100001.00;130275;1256;120348;-62
2023/06/01 13:46:48;;;;;;;6.40;2.50;;;;;;;26.85;31.21;99995.59;129824;1256;114740;-62
2023/06/01 13:49:51;;;;;;;4.80;2.80;;;;;;;26.82;31.19;99990.77;129982;1255;114769;-62
2023/06/01 13:52:53;;;;;;;5.20;2.60;;;;;;;26.80;31.27;99989.63;129858;1260;114814;-62
2023/06/01 13:55:56;;;;;;;4.90;2.70;;;;;;;26.77;31.32;99989.78;130250;1258;114790;-62